createdAt,value
2022-07-28T00:00:09.159Z,15.01
2022-07-28T00:02:39.564Z,15.03
2022-07-28T00:05:10.515Z,15.11
2022-07-28T00:07:40.415Z,15.15
2022-07-28T00:10:11.528Z,15.17
2022-07-28T00:12:43.828Z,15.22
2022-07-28T00:15:14.504Z,15.22
2022-07-28T00:17:44.228Z,15.27
2022-07-28T00:20:14.648Z,15.26
2022-07-28T00:22:45.137Z,15.23
2022-07-28T00:25:15.574Z,15.17
2022-07-28T00:27:48.497Z,15.19
2022-07-28T00:30:18.243Z,15.17
2022-07-28T00:32:48.294Z,15.14
2022-07-28T00:35:30.159Z,15.13
2022-07-28T00:38:01.073Z,15.12
2022-07-28T00:40:43.384Z,15.11
2022-07-28T00:43:15.749Z,15.04
2022-07-28T00:45:45.720Z,15.00
2022-07-28T00:48:15.433Z,14.95
2022-07-28T00:50:47.532Z,14.94
2022-07-28T00:53:17.566Z,14.94
2022-07-28T00:56:03.465Z,14.92
2022-07-28T00:58:40.204Z,14.80
2022-07-28T01:01:11.709Z,14.70
2022-07-28T01:03:44.465Z,14.69
2022-07-28T01:06:22.543Z,14.71
2022-07-28T01:09:01.833Z,14.75
2022-07-28T01:11:42.902Z,14.71
2022-07-28T01:14:22.237Z,14.68
2022-07-28T01:16:59.539Z,14.71
2022-07-28T01:19:42.581Z,14.74
2022-07-28T01:22:15.753Z,14.70
2022-07-28T01:24:59.214Z,14.76
2022-07-28T01:27:48.586Z,14.78
2022-07-28T01:30:32.278Z,14.74
2022-07-28T01:33:05.474Z,14.74
2022-07-28T01:35:40.684Z,14.73
2022-07-28T01:38:12.706Z,14.77
2022-07-28T01:40:45.858Z,14.78
2022-07-28T01:43:24.432Z,14.82
2022-07-28T01:45:58.649Z,14.83
2022-07-28T01:48:30.987Z,14.88
2022-07-28T01:51:01.350Z,14.89
2022-07-28T01:53:37.713Z,14.87
2022-07-28T01:56:10.593Z,14.83
2022-07-28T01:58:41.965Z,14.87
2022-07-28T02:01:17.564Z,14.90
2022-07-28T02:03:48.597Z,14.93
2022-07-28T02:06:21.032Z,14.93
2022-07-28T02:08:53.722Z,14.97
2022-07-28T02:11:36.434Z,14.99
2022-07-28T02:14:07.260Z,15.03
2022-07-28T02:16:41.859Z,15.07
2022-07-28T02:19:12.812Z,15.07
2022-07-28T02:21:47.726Z,15.10
2022-07-28T02:24:21.501Z,15.14
2022-07-28T02:26:56.410Z,15.18
2022-07-28T02:29:49.696Z,15.18
2022-07-28T02:32:27.066Z,15.13
2022-07-28T02:35:01.371Z,15.13
2022-07-28T02:37:37.635Z,15.14
2022-07-28T02:40:12.100Z,15.17
2022-07-28T02:42:43.958Z,15.20
2022-07-28T02:45:16.373Z,15.20
2022-07-28T02:47:54.541Z,15.24
2022-07-28T02:50:27.491Z,15.23
2022-07-28T02:53:00.898Z,15.23
2022-07-28T02:55:46.802Z,15.24
2022-07-28T02:58:18.588Z,15.23
2022-07-28T03:00:48.773Z,15.13
2022-07-28T03:03:22.349Z,15.10
2022-07-28T03:05:52.803Z,15.07
2022-07-28T03:08:22.583Z,15.10
2022-07-28T03:10:52.328Z,15.02
2022-07-28T03:13:22.045Z,15.01
2022-07-28T03:15:51.747Z,14.95
2022-07-28T03:18:27.453Z,14.89
2022-07-28T03:20:57.341Z,14.87
2022-07-28T03:23:31.533Z,14.87
2022-07-28T03:26:08.364Z,14.87
2022-07-28T03:28:39.434Z,14.85
2022-07-28T03:31:12.431Z,14.81
2022-07-28T03:33:45.122Z,14.76
2022-07-28T03:36:18.496Z,14.69
2022-07-28T03:38:54.539Z,14.69
2022-07-28T03:41:25.930Z,14.67
2022-07-28T03:43:57.152Z,14.61
2022-07-28T03:46:28.064Z,14.60
2022-07-28T03:49:00.529Z,14.62
2022-07-28T03:51:30.362Z,14.57
2022-07-28T03:54:00.090Z,14.53
2022-07-28T03:56:29.821Z,14.53
2022-07-28T03:58:59.549Z,14.54
2022-07-28T04:01:29.576Z,14.55
2022-07-28T04:04:01.941Z,14.53
2022-07-28T04:06:31.704Z,14.52
2022-07-28T04:09:01.441Z,14.49
2022-07-28T04:11:31.232Z,14.43
2022-07-28T04:14:01.024Z,14.32
2022-07-28T04:16:30.845Z,14.31
2022-07-28T04:19:03.799Z,14.37
2022-07-28T04:21:33.531Z,14.42
2022-07-28T04:24:03.239Z,14.44
2022-07-28T04:26:32.952Z,14.41
2022-07-28T04:29:03.276Z,14.42
2022-07-28T04:31:33.302Z,14.42
2022-07-28T04:34:05.643Z,14.52
2022-07-28T04:36:41.871Z,14.55
2022-07-28T04:39:11.777Z,14.56
2022-07-28T04:41:41.957Z,14.54
2022-07-28T04:44:13.758Z,14.53
2022-07-28T04:46:44.679Z,14.54
2022-07-28T04:49:17.230Z,14.62
2022-07-28T04:51:50.662Z,14.69
2022-07-28T04:54:26.081Z,14.79
2022-07-28T04:56:56.373Z,14.87
2022-07-28T04:59:27.009Z,14.96
2022-07-28T05:01:58.524Z,15.06
2022-07-28T05:04:31.140Z,15.20
2022-07-28T05:07:00.934Z,15.28
2022-07-28T05:09:37.755Z,15.33
2022-07-28T05:12:07.933Z,15.36
2022-07-28T05:14:37.745Z,15.40
2022-07-28T05:17:07.495Z,15.41
2022-07-28T05:19:42.115Z,15.48
2022-07-28T05:22:11.876Z,15.53
2022-07-28T05:24:41.592Z,15.59
2022-07-28T05:27:12.272Z,15.67
2022-07-28T05:29:46.988Z,15.73
2022-07-28T05:32:18.232Z,15.82
2022-07-28T05:34:50.771Z,15.88
2022-07-28T05:37:20.566Z,15.94
2022-07-28T05:39:50.268Z,15.98
2022-07-28T05:42:20.010Z,16.06
2022-07-28T05:44:49.742Z,16.12
2022-07-28T05:47:19.431Z,16.17
2022-07-28T05:49:51.744Z,16.22
2022-07-28T05:52:21.687Z,16.28
2022-07-28T05:54:51.418Z,16.30
2022-07-28T05:57:21.137Z,16.35
2022-07-28T05:59:50.857Z,16.37
2022-07-28T06:02:20.885Z,16.38
2022-07-28T06:04:53.498Z,16.41
2022-07-28T06:07:23.241Z,16.40
2022-07-28T06:10:13.627Z,16.42
2022-07-28T06:12:44.182Z,16.43
2022-07-28T06:15:16.214Z,16.46
2022-07-28T06:17:46.009Z,16.50
2022-07-28T06:20:18.329Z,16.53
2022-07-28T06:22:50.170Z,16.53
2022-07-28T06:25:22.094Z,16.54
2022-07-28T06:27:55.166Z,16.53
2022-07-28T06:30:26.429Z,16.57
2022-07-28T06:32:56.393Z,16.59
2022-07-28T06:35:28.898Z,16.62
2022-07-28T06:37:58.689Z,16.63
2022-07-28T06:40:28.478Z,16.65
2022-07-28T06:42:58.272Z,16.66
2022-07-28T06:45:28.060Z,16.68
2022-07-28T06:47:57.798Z,16.71
2022-07-28T06:50:30.150Z,16.70
2022-07-28T06:53:00.559Z,16.71
2022-07-28T06:55:35.378Z,16.67
2022-07-28T06:58:05.930Z,16.75
2022-07-28T07:00:36.206Z,16.78
2022-07-28T07:03:09.639Z,16.84
2022-07-28T07:05:42.237Z,16.93
2022-07-28T07:08:11.975Z,16.93
2022-07-28T07:10:41.737Z,16.87
2022-07-28T07:13:11.500Z,16.85
2022-07-28T07:15:43.620Z,16.96
2022-07-28T07:18:13.354Z,17.06
2022-07-28T07:20:45.671Z,17.29
2022-07-28T07:23:15.450Z,17.72
2022-07-28T07:25:45.288Z,18.26
2022-07-28T07:28:15.362Z,18.77
2022-07-28T07:30:45.160Z,19.20
2022-07-28T07:33:14.950Z,19.66
2022-07-28T07:35:47.593Z,20.02
2022-07-28T07:38:17.310Z,20.36
2022-07-28T07:40:47.313Z,20.70
2022-07-28T07:43:17.033Z,20.97
2022-07-28T07:45:47.382Z,21.24
2022-07-28T07:48:17.121Z,21.46
2022-07-28T07:50:53.825Z,21.77
2022-07-28T07:53:24.406Z,22.09
2022-07-28T07:55:54.174Z,22.38
2022-07-28T07:58:24.064Z,22.66
2022-07-28T08:00:54.127Z,22.90
2022-07-28T08:03:24.076Z,23.10
2022-07-28T08:05:59.065Z,22.90
2022-07-28T08:08:29.968Z,22.51
2022-07-28T08:10:59.999Z,22.58
2022-07-28T08:13:33.785Z,22.87
2022-07-28T08:16:04.099Z,22.90
2022-07-28T08:18:33.837Z,22.84
2022-07-28T08:21:06.389Z,22.65
2022-07-28T08:23:36.120Z,22.59
2022-07-28T08:26:06.185Z,22.59
2022-07-28T08:28:35.865Z,22.67
2022-07-28T08:31:05.644Z,22.68
2022-07-28T08:33:35.370Z,22.42
2022-07-28T08:36:26.294Z,22.34
2022-07-28T08:38:56.016Z,22.54
2022-07-28T08:41:33.699Z,22.55
2022-07-28T08:44:05.756Z,22.24
2022-07-28T08:46:38.838Z,22.27
2022-07-28T08:49:11.207Z,21.92
2022-07-28T08:51:50.334Z,22.07
2022-07-28T08:54:24.347Z,21.94
2022-07-28T08:56:54.553Z,21.49
2022-07-28T08:59:24.783Z,21.44
2022-07-28T09:01:57.822Z,21.21
2022-07-28T09:04:29.254Z,20.81
2022-07-28T09:07:01.784Z,20.60
2022-07-28T09:09:32.051Z,20.37
2022-07-28T09:12:01.947Z,20.09
2022-07-28T09:14:31.711Z,19.81
2022-07-28T09:17:02.727Z,19.89
2022-07-28T09:19:35.860Z,20.05
2022-07-28T09:22:09.561Z,19.98
2022-07-28T09:24:41.235Z,19.76
2022-07-28T09:27:13.419Z,19.62
2022-07-28T09:29:45.034Z,19.44
2022-07-28T09:32:16.153Z,19.40
2022-07-28T09:34:48.494Z,19.38
2022-07-28T09:37:27.676Z,19.21
2022-07-28T09:39:59.466Z,19.12
2022-07-28T09:42:47.287Z,19.14
2022-07-28T09:45:25.092Z,19.09
2022-07-28T09:48:12.134Z,18.97
2022-07-28T09:50:43.088Z,18.91
2022-07-28T09:53:28.471Z,18.81
2022-07-28T09:56:00.967Z,18.96
2022-07-28T09:58:32.420Z,19.05
2022-07-28T10:01:07.367Z,19.09
2022-07-28T10:03:38.491Z,19.06
2022-07-28T10:06:11.700Z,19.17
2022-07-28T10:08:49.069Z,19.35
2022-07-28T10:11:21.805Z,19.54
2022-07-28T10:14:05.520Z,19.54
2022-07-28T10:16:36.947Z,19.53
2022-07-28T10:19:08.700Z,19.67
2022-07-28T10:21:44.261Z,19.77
2022-07-28T10:24:23.461Z,20.07
2022-07-28T10:26:55.320Z,20.23
2022-07-28T10:29:25.483Z,20.41
2022-07-28T10:31:57.214Z,20.31
2022-07-28T10:34:32.050Z,20.38
2022-07-28T10:37:05.187Z,20.51
2022-07-28T10:39:43.878Z,20.53
2022-07-28T10:42:14.932Z,20.36
2022-07-28T10:44:45.812Z,20.37
2022-07-28T10:47:18.461Z,20.26
2022-07-28T10:49:50.588Z,20.35
2022-07-28T10:55:21.864Z,20.37
2022-07-28T10:58:11.443Z,20.39
2022-07-28T11:01:04.720Z,20.16
2022-07-28T11:03:40.972Z,20.43
2022-07-28T11:06:30.596Z,20.52
2022-07-28T11:09:02.953Z,20.34
2022-07-28T11:11:52.711Z,20.05
2022-07-28T11:14:37.134Z,19.95
2022-07-28T11:17:23.931Z,20.02
2022-07-28T11:20:24.665Z,20.20
2022-07-28T11:22:49.376Z,20.28
2022-07-28T11:25:22.550Z,20.36
2022-07-28T11:28:08.412Z,20.16
2022-07-28T11:30:55.040Z,19.92
2022-07-28T11:33:25.369Z,19.71
2022-07-28T11:36:00.372Z,19.58
2022-07-28T11:38:31.978Z,19.48
2022-07-28T11:41:01.678Z,19.44
2022-07-28T11:43:40.205Z,19.49
2022-07-28T11:46:37.581Z,19.27
2022-07-28T11:49:22.557Z,19.31
2022-07-28T11:52:11.106Z,19.39
2022-07-28T11:54:41.919Z,19.42
2022-07-28T11:57:13.768Z,19.40
2022-07-28T11:59:59.908Z,19.53
2022-07-28T12:02:32.376Z,19.58
2022-07-28T12:05:14.570Z,19.72
2022-07-28T12:07:47.677Z,19.83
2022-07-28T12:10:54.477Z,19.92
2022-07-28T12:13:30.269Z,19.97
2022-07-28T12:16:02.677Z,20.10
2022-07-28T12:18:32.513Z,20.13
2022-07-28T12:21:05.353Z,20.00
2022-07-28T12:23:45.929Z,19.87
2022-07-28T12:26:40.915Z,19.82
2022-07-28T12:29:14.173Z,19.78
2022-07-28T12:31:59.380Z,19.92
2022-07-28T12:34:30.076Z,19.89
2022-07-28T12:37:02.521Z,19.94
2022-07-28T12:39:34.553Z,19.92
2022-07-28T12:42:06.200Z,19.89
2022-07-28T12:44:37.568Z,19.99
2022-07-28T12:47:12.432Z,20.08
2022-07-28T12:49:43.714Z,20.15
2022-07-28T12:52:22.189Z,20.23
2022-07-28T12:54:55.816Z,20.24
2022-07-28T12:57:51.679Z,20.28
2022-07-28T13:00:24.713Z,20.16
2022-07-28T13:03:00.621Z,20.06
2022-07-28T13:05:56.225Z,19.98
2022-07-28T13:08:29.454Z,20.25
2022-07-28T13:10:59.502Z,20.30
2022-07-28T13:13:30.541Z,20.41
2022-07-28T13:16:17.525Z,20.48
2022-07-28T13:18:51.991Z,20.34
2022-07-28T13:21:58.496Z,20.32
2022-07-28T13:24:32.558Z,20.30
2022-07-28T13:27:04.749Z,20.30
2022-07-28T13:29:37.002Z,20.36
2022-07-28T13:32:06.942Z,20.41
2022-07-28T13:34:39.347Z,20.36
2022-07-28T13:37:09.062Z,20.32
2022-07-28T13:39:38.789Z,20.19
2022-07-28T13:42:10.397Z,20.40
2022-07-28T13:44:41.084Z,20.51
2022-07-28T13:47:11.042Z,20.67
2022-07-28T13:49:49.190Z,20.62
2022-07-28T13:52:32.969Z,20.49
2022-07-28T13:55:06.333Z,20.44
2022-07-28T13:57:36.909Z,20.46
2022-07-28T14:00:09.449Z,20.52
2022-07-28T14:02:44.018Z,20.42
2022-07-28T14:05:16.738Z,20.39
2022-07-28T14:07:48.590Z,20.41
2022-07-28T14:10:19.238Z,20.21
2022-07-28T14:12:49.008Z,20.26
2022-07-28T14:15:18.735Z,20.23
2022-07-28T14:17:48.515Z,20.21
2022-07-28T14:20:20.875Z,20.23
2022-07-28T14:22:50.623Z,20.25
2022-07-28T14:25:21.737Z,20.13
2022-07-28T14:27:52.846Z,20.23
2022-07-28T14:30:23.516Z,20.19
2022-07-28T14:32:53.235Z,20.23
2022-07-28T14:35:26.600Z,20.27
2022-07-28T14:40:46.031Z,20.38
2022-07-28T14:43:15.815Z,20.43
2022-07-28T14:46:00.472Z,20.32
2022-07-28T14:48:35.593Z,20.48
2022-07-28T14:51:07.952Z,20.32
2022-07-28T14:53:43.207Z,20.19
2022-07-28T14:56:18.172Z,19.98
2022-07-28T14:58:47.892Z,19.74
2022-07-28T15:01:18.187Z,19.95
2022-07-28T15:03:48.000Z,20.01
2022-07-28T15:06:20.326Z,20.03
2022-07-28T15:08:50.036Z,20.13
2022-07-28T15:11:19.788Z,20.06
2022-07-28T15:13:49.529Z,20.06
2022-07-28T15:16:19.319Z,20.10
2022-07-28T15:18:49.125Z,20.14
2022-07-28T15:21:21.823Z,20.15
2022-07-28T15:23:51.535Z,20.13
2022-07-28T15:26:21.313Z,20.23
2022-07-28T15:28:51.149Z,20.00
2022-07-28T15:31:20.975Z,20.06
2022-07-28T15:33:57.652Z,19.97
2022-07-28T15:36:30.544Z,19.85
2022-07-28T15:39:00.344Z,19.82
2022-07-28T15:41:30.176Z,19.86
2022-07-28T15:43:59.940Z,19.91
2022-07-28T15:46:29.842Z,19.88
2022-07-28T15:49:00.541Z,19.89
2022-07-28T15:51:33.037Z,19.95
2022-07-28T15:54:03.625Z,19.69
2022-07-28T15:56:34.671Z,19.60
2022-07-28T15:59:07.353Z,19.61
2022-07-28T16:01:43.269Z,19.40
2022-07-28T16:04:15.330Z,19.28
2022-07-28T16:07:00.261Z,19.37
2022-07-28T16:09:46.087Z,19.54
2022-07-28T16:12:16.964Z,19.57
2022-07-28T16:14:46.718Z,19.59
2022-07-28T16:17:16.598Z,19.69
2022-07-28T16:19:49.592Z,19.60
2022-07-28T16:22:23.500Z,19.49
2022-07-28T16:24:53.528Z,19.46
2022-07-28T16:27:23.280Z,19.44
2022-07-28T16:29:52.988Z,19.40
2022-07-28T16:32:22.859Z,19.47
2022-07-28T16:34:53.956Z,19.37
2022-07-28T16:37:27.008Z,19.19
2022-07-28T16:39:57.593Z,19.23
2022-07-28T16:42:27.347Z,19.19
2022-07-28T16:44:57.335Z,18.98
2022-07-28T16:47:27.093Z,19.05
2022-07-28T16:49:56.813Z,18.98
2022-07-28T16:52:29.874Z,18.98
2022-07-28T16:54:59.579Z,19.00
2022-07-28T16:57:29.310Z,19.00
2022-07-28T16:59:59.031Z,18.98
2022-07-28T17:02:28.777Z,18.69
2022-07-28T17:04:58.622Z,18.71
2022-07-28T17:07:31.053Z,18.75
2022-07-28T17:10:00.778Z,18.74
2022-07-28T17:12:30.496Z,18.85
2022-07-28T17:15:00.302Z,18.86
2022-07-28T17:17:30.264Z,18.79
2022-07-28T17:20:00.508Z,18.71
2022-07-28T17:22:33.393Z,18.55
2022-07-28T17:25:06.858Z,18.50
2022-07-28T17:27:47.701Z,18.55
2022-07-28T17:30:18.375Z,18.49
2022-07-28T17:32:48.098Z,18.44
2022-07-28T17:35:34.416Z,18.37
2022-07-28T17:38:09.964Z,18.31
2022-07-28T17:40:42.781Z,18.32
2022-07-28T17:43:15.299Z,18.33
2022-07-28T17:45:45.031Z,18.29
2022-07-28T17:48:14.840Z,18.31
2022-07-28T17:50:44.994Z,18.14
2022-07-28T17:53:19.791Z,18.15
2022-07-28T17:56:00.584Z,18.02
2022-07-28T17:58:32.642Z,17.98
2022-07-28T18:01:11.986Z,17.91
2022-07-28T18:03:57.872Z,17.91
2022-07-28T18:06:30.702Z,17.91
2022-07-28T18:09:05.271Z,17.80
2022-07-28T18:11:58.451Z,17.64
2022-07-28T18:14:27.696Z,17.63
2022-07-28T18:16:57.752Z,17.52
2022-07-28T18:19:27.810Z,17.57
2022-07-28T18:21:59.044Z,17.53
2022-07-28T18:24:32.074Z,17.52
2022-07-28T18:27:02.048Z,17.47
2022-07-28T18:29:38.488Z,17.44
2022-07-28T18:32:10.457Z,17.47
2022-07-28T18:34:41.368Z,17.43
2022-07-28T18:37:11.125Z,17.30
2022-07-28T18:39:43.507Z,17.27
2022-07-28T18:42:13.437Z,17.28
2022-07-28T18:44:43.149Z,17.36
2022-07-28T18:47:13.603Z,17.32
2022-07-28T18:49:43.473Z,17.28
2022-07-28T18:52:13.225Z,17.32
2022-07-28T18:54:45.585Z,17.20
2022-07-28T18:57:15.304Z,17.02
2022-07-28T18:59:50.200Z,17.10
2022-07-28T19:02:22.096Z,17.12
2022-07-28T19:04:56.098Z,16.99
2022-07-28T19:07:25.779Z,17.02
2022-07-28T19:09:58.901Z,17.05
2022-07-28T19:12:31.234Z,17.09
2022-07-28T19:15:01.463Z,17.04
2022-07-28T19:17:31.224Z,17.06
2022-07-28T19:20:01.333Z,17.00
2022-07-28T19:22:31.073Z,16.99
2022-07-28T19:25:03.564Z,16.98
2022-07-28T19:27:34.433Z,16.90
2022-07-28T19:30:04.148Z,16.81
2022-07-28T19:32:33.949Z,16.82
2022-07-28T19:35:04.005Z,16.81
2022-07-28T19:37:37.094Z,16.73
2022-07-28T19:40:11.282Z,16.75
2022-07-28T19:42:41.038Z,16.73
2022-07-28T19:45:12.087Z,16.80
2022-07-28T19:47:42.353Z,16.80
2022-07-28T19:50:12.556Z,16.77
2022-07-28T19:52:42.898Z,16.79
2022-07-28T19:55:17.709Z,16.73
2022-07-28T19:57:48.143Z,16.77
2022-07-28T20:00:19.270Z,16.70
2022-07-28T20:02:49.074Z,16.73
2022-07-28T20:05:19.193Z,16.79
2022-07-28T20:07:48.929Z,16.83
2022-07-28T20:10:22.191Z,16.81
2022-07-28T20:12:52.035Z,16.72
2022-07-28T20:15:22.220Z,16.71
2022-07-28T20:17:51.963Z,16.73
2022-07-28T20:20:22.033Z,16.75
2022-07-28T20:22:51.971Z,16.72
2022-07-28T20:25:24.319Z,16.66
2022-07-28T20:27:54.745Z,16.64
2022-07-28T20:30:24.537Z,16.62
2022-07-28T20:32:54.300Z,16.62
2022-07-28T20:35:24.045Z,16.65
2022-07-28T20:37:53.954Z,16.60
2022-07-28T20:40:26.608Z,16.65
2022-07-28T20:42:56.831Z,16.58
2022-07-28T20:45:26.857Z,16.58
2022-07-28T20:47:56.577Z,16.56
2022-07-28T20:50:26.365Z,16.58
2022-07-28T20:52:56.126Z,16.58
2022-07-28T20:55:28.676Z,16.54
2022-07-28T20:57:58.711Z,16.53
2022-07-28T21:00:30.124Z,16.51
2022-07-28T21:03:01.556Z,16.54
2022-07-28T21:05:35.778Z,16.56
2022-07-28T21:08:09.489Z,16.53
2022-07-28T21:10:48.897Z,16.53
2022-07-28T21:13:18.619Z,16.42
2022-07-28T21:15:48.351Z,16.22
2022-07-28T21:18:18.377Z,16.31
2022-07-28T21:20:48.108Z,16.34
2022-07-28T21:23:18.971Z,16.30
2022-07-28T21:25:51.539Z,16.29
2022-07-28T21:28:33.678Z,16.29
2022-07-28T21:31:03.391Z,16.26
2022-07-28T21:33:33.216Z,16.30
2022-07-28T21:36:03.394Z,16.25
2022-07-28T21:38:33.207Z,16.20
2022-07-28T21:41:05.554Z,16.17
2022-07-28T21:43:35.306Z,16.14
2022-07-28T21:46:05.569Z,16.07
2022-07-28T21:48:35.489Z,16.05
2022-07-28T21:51:05.253Z,16.03
2022-07-28T21:53:49.119Z,16.06
2022-07-28T21:56:22.481Z,16.00
2022-07-28T21:58:52.462Z,15.93
2022-07-28T22:01:22.654Z,15.93
2022-07-28T22:03:52.864Z,15.85
2022-07-28T22:06:22.861Z,15.84
2022-07-28T22:08:54.111Z,15.84
2022-07-28T22:11:26.693Z,15.85
2022-07-28T22:13:56.349Z,15.83
2022-07-28T22:16:26.029Z,15.73
2022-07-28T22:18:55.721Z,15.73
2022-07-28T22:21:25.394Z,15.79
2022-07-28T22:23:55.034Z,15.79
2022-07-28T22:26:27.268Z,15.76
2022-07-28T22:28:56.915Z,15.79
2022-07-28T22:31:26.615Z,15.78
2022-07-28T22:33:56.287Z,15.78
2022-07-28T22:36:25.972Z,15.81
2022-07-28T22:38:55.786Z,15.84
2022-07-28T22:41:28.050Z,15.80
2022-07-28T22:43:58.694Z,15.82
2022-07-28T22:46:28.505Z,15.90
2022-07-28T22:48:58.344Z,15.89
2022-07-28T22:51:28.138Z,15.85
2022-07-28T22:53:59.078Z,15.89
2022-07-28T22:56:43.417Z,15.91
2022-07-28T22:59:14.438Z,15.88
2022-07-28T23:01:47.515Z,15.87
2022-07-28T23:04:17.756Z,15.86
2022-07-28T23:06:48.280Z,15.95
2022-07-28T23:09:18.098Z,15.93
2022-07-28T23:11:55.570Z,15.89
2022-07-28T23:14:25.741Z,15.81
2022-07-28T23:16:55.543Z,15.82
2022-07-28T23:19:25.408Z,15.86
2022-07-28T23:21:55.284Z,15.84
2022-07-28T23:24:25.191Z,15.82
2022-07-28T23:26:57.553Z,15.82
2022-07-28T23:29:27.312Z,15.79
2022-07-28T23:31:57.124Z,15.78
2022-07-28T23:34:26.944Z,15.81
2022-07-28T23:36:56.701Z,15.85
2022-07-28T23:39:26.486Z,15.86
2022-07-28T23:41:58.886Z,15.84
2022-07-28T23:44:28.659Z,15.88
2022-07-28T23:46:58.458Z,15.87
2022-07-28T23:49:28.484Z,15.83
2022-07-28T23:51:58.278Z,15.79
2022-07-28T23:54:27.999Z,15.79
2022-07-28T23:57:00.328Z,15.85
2022-07-28T23:59:30.096Z,15.85
